createdAt,value
2019-04-04T00:00:08.005Z,4.60
2019-04-04T00:02:37.478Z,25.87
2019-04-04T00:05:07.063Z,13.03
2019-04-04T00:07:36.624Z,3.70
2019-04-04T00:10:06.649Z,3.30
2019-04-04T00:12:37.020Z,3.97
2019-04-04T00:15:07.326Z,4.30
2019-04-04T00:17:36.915Z,2.63
2019-04-04T00:20:06.686Z,3.20
2019-04-04T00:22:36.105Z,3.60
2019-04-04T00:25:05.717Z,3.40
2019-04-04T00:27:35.148Z,2.87
2019-04-04T00:30:04.726Z,2.60
2019-04-04T00:32:34.135Z,3.70
2019-04-04T00:35:03.577Z,2.60
2019-04-04T00:37:35.733Z,2.70
2019-04-04T00:40:04.469Z,3.30
2019-04-04T00:42:34.126Z,2.53
2019-04-04T00:45:03.576Z,2.70
2019-04-04T00:47:33.027Z,3.87
2019-04-04T00:50:06.123Z,3.20
2019-04-04T00:52:33.631Z,2.53
2019-04-04T00:55:03.083Z,2.90
2019-04-04T00:57:32.597Z,2.80
2019-04-04T01:00:02.023Z,5.50
2019-04-04T01:02:31.496Z,2.80
2019-04-04T01:05:01.573Z,2.90
2019-04-04T01:07:31.653Z,3.10
2019-04-04T01:10:01.081Z,2.77
2019-04-04T01:12:30.534Z,3.10
2019-04-04T01:15:00.700Z,3.90
2019-04-04T01:17:30.213Z,3.07
2019-04-04T01:19:59.633Z,5.73
2019-04-04T01:22:29.115Z,5.57
2019-04-04T01:24:59.005Z,8.03
2019-04-04T01:27:29.632Z,7.80
2019-04-04T01:29:59.037Z,6.37
2019-04-04T01:32:28.565Z,7.97
2019-04-04T01:34:57.989Z,4.90
2019-04-04T01:37:27.891Z,5.10
2019-04-04T01:39:57.418Z,4.00
2019-04-04T01:42:26.860Z,3.80
2019-04-04T01:44:56.277Z,3.20
2019-04-04T01:47:25.828Z,3.20
2019-04-04T01:49:55.254Z,4.10
2019-04-04T01:52:27.903Z,4.70
2019-04-04T01:54:55.862Z,4.63
2019-04-04T01:57:25.298Z,4.13
2019-04-04T01:59:54.716Z,3.20
2019-04-04T02:02:24.265Z,5.77
2019-04-04T02:04:53.918Z,4.10
2019-04-04T02:07:24.784Z,3.70
2019-04-04T02:09:54.284Z,4.97
2019-04-04T02:12:23.746Z,4.60
2019-04-04T02:14:53.161Z,4.07
2019-04-04T02:17:22.798Z,28.50
2019-04-04T02:19:55.598Z,12.97
2019-04-04T02:22:23.845Z,16.67
2019-04-04T02:24:53.277Z,15.63
2019-04-04T02:27:22.722Z,5.50
2019-04-04T02:29:53.983Z,13.83
2019-04-04T02:32:26.684Z,7.63
2019-04-04T02:34:55.014Z,9.70
2019-04-04T02:37:24.452Z,6.90
2019-04-04T02:39:53.917Z,6.33
2019-04-04T02:42:23.373Z,5.50
2019-04-04T02:44:53.004Z,5.30
2019-04-04T02:47:22.417Z,5.20
2019-04-04T02:49:51.881Z,5.97
2019-04-04T02:52:21.304Z,5.50
2019-04-04T02:54:50.726Z,4.57
2019-04-04T02:57:20.141Z,6.17
2019-04-04T02:59:52.853Z,4.67
2019-04-04T03:02:20.737Z,4.97
2019-04-04T03:04:50.189Z,5.67
2019-04-04T03:07:19.810Z,5.63
2019-04-04T03:09:49.386Z,6.07
2019-04-04T03:12:18.903Z,5.60
2019-04-04T03:14:50.580Z,6.20
2019-04-04T03:17:19.466Z,5.70
2019-04-04T03:19:48.901Z,6.97
2019-04-04T03:22:18.323Z,6.33
2019-04-04T03:24:47.762Z,6.20
2019-04-04T03:27:17.241Z,6.40
2019-04-04T03:29:46.739Z,6.10
2019-04-04T03:32:16.812Z,7.07
2019-04-04T03:34:49.750Z,7.50
2019-04-04T03:37:18.066Z,7.43
2019-04-04T03:39:51.909Z,6.17
2019-04-04T03:42:18.604Z,7.40
2019-04-04T03:44:52.757Z,7.60
2019-04-04T03:47:19.145Z,8.23
2019-04-04T03:49:48.879Z,8.03
2019-04-04T03:52:18.298Z,7.03
2019-04-04T03:54:47.748Z,7.20
2019-04-04T03:57:17.203Z,8.00
2019-04-04T03:59:46.737Z,7.53
2019-04-04T04:02:18.597Z,7.10
2019-04-04T04:04:47.388Z,10.60
2019-04-04T04:07:16.817Z,7.57
2019-04-04T04:09:46.266Z,8.73
2019-04-04T04:12:15.706Z,7.97
2019-04-04T04:14:45.131Z,9.20
2019-04-04T04:17:14.560Z,10.87
2019-04-04T04:19:44.028Z,9.20
2019-04-04T04:22:17.971Z,8.93
2019-04-04T04:24:44.557Z,10.03
2019-04-04T04:27:15.576Z,9.03
2019-04-04T04:29:45.220Z,11.17
2019-04-04T04:32:14.641Z,11.60
2019-04-04T04:34:44.091Z,12.90
2019-04-04T04:37:13.494Z,14.00
2019-04-04T04:39:44.172Z,12.30
2019-04-04T04:42:13.632Z,13.13
2019-04-04T04:44:44.393Z,13.30
2019-04-04T04:47:13.758Z,14.30
2019-04-04T04:49:43.222Z,13.83
2019-04-04T04:52:15.185Z,13.13
2019-04-04T04:54:43.834Z,11.53
2019-04-04T04:57:28.439Z,16.27
2019-04-04T04:59:44.993Z,16.60
2019-04-04T05:02:14.819Z,13.17
2019-04-04T05:04:44.364Z,13.50
2019-04-04T05:07:13.822Z,13.70
2019-04-04T05:09:44.606Z,17.07
2019-04-04T05:12:14.890Z,11.83
2019-04-04T05:14:44.358Z,13.23
2019-04-04T05:17:13.807Z,13.93
2019-04-04T05:19:45.100Z,12.30
2019-04-04T05:22:14.351Z,12.07
2019-04-04T05:24:43.782Z,13.70
2019-04-04T05:27:13.310Z,14.10
2019-04-04T05:29:44.642Z,13.60
2019-04-04T05:32:14.029Z,13.87
2019-04-04T05:34:43.831Z,14.50
2019-04-04T05:37:13.273Z,15.50
2019-04-04T05:39:42.696Z,13.83
2019-04-04T05:42:12.168Z,16.63
2019-04-04T05:44:42.299Z,16.13
2019-04-04T05:47:11.946Z,16.27
2019-04-04T05:49:41.383Z,14.80
2019-04-04T05:52:10.848Z,16.33
2019-04-04T05:54:40.284Z,15.30
2019-04-04T05:57:09.749Z,18.77
2019-04-04T05:59:42.120Z,18.03
2019-04-04T06:02:11.613Z,17.40
2019-04-04T06:04:41.513Z,15.53
2019-04-04T06:07:11.004Z,16.13
2019-04-04T06:09:41.972Z,15.77
2019-04-04T06:12:11.673Z,14.57
2019-04-04T06:14:41.105Z,14.43
2019-04-04T06:17:10.593Z,15.10
2019-04-04T06:19:40.034Z,14.43
2019-04-04T06:22:09.507Z,14.90
2019-04-04T06:24:38.926Z,14.40
2019-04-04T06:27:09.134Z,14.23
2019-04-04T06:29:39.154Z,15.97
2019-04-04T06:32:08.696Z,15.70
2019-04-04T06:34:38.141Z,18.67
2019-04-04T06:37:07.637Z,15.37
2019-04-04T06:39:37.066Z,17.07
2019-04-04T06:42:07.633Z,14.40
2019-04-04T06:44:37.066Z,16.83
2019-04-04T06:47:06.529Z,17.82
2019-04-04T06:49:36.222Z,15.63
2019-04-04T06:52:05.810Z,17.80
2019-04-04T06:54:35.230Z,15.50
2019-04-04T06:57:04.925Z,15.80
2019-04-04T06:59:34.680Z,14.73
2019-04-04T07:02:05.349Z,15.50
2019-04-04T07:04:36.027Z,13.53
2019-04-04T07:07:05.658Z,13.17
2019-04-04T07:09:37.279Z,14.57
2019-04-04T07:12:07.153Z,16.70
2019-04-04T07:14:45.573Z,13.10
2019-04-04T07:17:08.670Z,12.93
2019-04-04T07:19:39.025Z,13.70
2019-04-04T07:22:08.458Z,11.97
2019-04-04T07:24:37.942Z,14.23
2019-04-04T07:27:07.417Z,12.83
2019-04-04T07:29:37.113Z,11.93
2019-04-04T07:32:07.242Z,11.90
2019-04-04T07:34:37.769Z,11.53
2019-04-04T07:37:07.208Z,12.37
2019-04-04T07:39:36.715Z,12.33
2019-04-04T07:42:06.145Z,10.60
2019-04-04T07:44:35.609Z,12.30
2019-04-04T07:47:05.054Z,10.80
2019-04-04T07:49:34.560Z,11.27
2019-04-04T07:52:04.300Z,13.30
2019-04-04T07:54:33.750Z,11.73
2019-04-04T07:57:03.199Z,12.37
2019-04-04T07:59:32.657Z,9.43
2019-04-04T08:02:02.131Z,12.73
2019-04-04T08:04:31.641Z,11.67
2019-04-04T08:07:01.062Z,13.97
2019-04-04T08:09:30.557Z,12.07
2019-04-04T08:12:00.190Z,10.17
2019-04-04T08:14:29.666Z,13.80
2019-04-04T08:16:59.161Z,12.17
2019-04-04T08:19:28.632Z,10.93
2019-04-04T08:21:58.086Z,12.10
2019-04-04T08:24:27.534Z,12.27
2019-04-04T08:26:56.966Z,14.10
2019-04-04T08:29:26.451Z,12.60
2019-04-04T08:31:55.899Z,10.73
2019-04-04T08:34:25.377Z,10.33
2019-04-04T08:36:54.802Z,11.33
2019-04-04T08:39:24.341Z,10.97
2019-04-04T08:41:53.800Z,10.57
2019-04-04T08:44:23.224Z,13.60
2019-04-04T08:46:55.447Z,10.23
2019-04-04T08:49:23.756Z,12.00
2019-04-04T08:51:53.243Z,10.30
2019-04-04T08:54:22.745Z,12.53
2019-04-04T08:56:52.225Z,12.37
2019-04-04T08:59:23.130Z,12.00
2019-04-04T09:01:52.607Z,16.13
2019-04-04T09:04:24.072Z,11.00
2019-04-04T09:06:53.147Z,12.40
2019-04-04T09:09:22.645Z,13.90
2019-04-04T09:11:52.149Z,11.97
2019-04-04T09:14:21.565Z,12.10
2019-04-04T09:16:51.021Z,11.13
2019-04-04T09:19:20.449Z,12.23
2019-04-04T09:21:51.377Z,13.93
2019-04-04T09:24:20.826Z,14.43
2019-04-04T09:26:50.261Z,13.43
2019-04-04T09:29:19.956Z,18.83
2019-04-04T09:31:49.454Z,12.63
2019-04-04T09:34:18.952Z,12.70
2019-04-04T09:36:48.410Z,16.90
2019-04-04T09:39:17.960Z,14.67
2019-04-04T09:41:47.415Z,16.90
2019-04-04T09:44:16.848Z,22.97
2019-04-04T09:46:46.320Z,15.10
2019-04-04T09:49:15.768Z,14.10
2019-04-04T09:51:45.275Z,16.67
2019-04-04T09:54:14.674Z,14.80
2019-04-04T09:56:44.132Z,14.87
2019-04-04T09:59:13.570Z,13.80
2019-04-04T10:01:43.126Z,15.53
2019-04-04T10:04:12.585Z,19.60
2019-04-04T10:06:42.039Z,14.37
2019-04-04T10:09:15.935Z,15.30
2019-04-04T10:11:42.574Z,16.43
2019-04-04T10:14:12.006Z,15.77
2019-04-04T10:16:42.550Z,17.40
2019-04-04T10:19:11.982Z,18.90
2019-04-04T10:21:41.437Z,16.70
2019-04-04T10:24:10.850Z,16.80
2019-04-04T10:26:40.377Z,18.43
2019-04-04T10:29:09.822Z,18.73
2019-04-04T10:31:39.277Z,16.73
2019-04-04T10:34:08.729Z,16.27
2019-04-04T10:36:38.260Z,21.07
2019-04-04T10:39:12.339Z,18.40
2019-04-04T10:41:42.244Z,14.70
2019-04-04T10:44:11.681Z,18.33
2019-04-04T10:46:41.126Z,16.17
2019-04-04T10:49:10.550Z,18.90
2019-04-04T10:51:40.008Z,20.03
2019-04-04T10:54:09.467Z,19.80
2019-04-04T10:56:38.941Z,18.17
2019-04-04T10:59:08.373Z,18.60
2019-04-04T11:01:37.836Z,22.03
2019-04-04T11:04:07.323Z,21.07
2019-04-04T11:06:36.858Z,18.00
2019-04-04T11:09:07.892Z,18.17
2019-04-04T11:11:37.320Z,23.77
2019-04-04T11:14:06.779Z,17.43
2019-04-04T11:16:36.360Z,21.27
2019-04-04T11:19:05.822Z,19.25
2019-04-04T11:21:35.274Z,19.60
2019-04-04T11:24:04.727Z,17.50
2019-04-04T11:26:34.226Z,19.23
2019-04-04T11:29:03.915Z,21.13
2019-04-04T11:31:33.364Z,19.87
2019-04-04T11:34:02.826Z,19.97
2019-04-04T11:36:32.251Z,17.70
2019-04-04T11:39:01.745Z,18.90
2019-04-04T11:41:31.227Z,16.77
2019-04-04T11:44:00.677Z,18.97
2019-04-04T11:46:30.095Z,17.33
2019-04-04T11:48:59.574Z,19.70
2019-04-04T11:51:29.002Z,21.90
2019-04-04T11:53:58.464Z,25.57
2019-04-04T11:56:28.016Z,19.03
2019-04-04T11:58:57.469Z,18.37
2019-04-04T12:01:27.673Z,20.67
2019-04-04T12:03:57.153Z,24.43
2019-04-04T12:06:26.682Z,21.93
2019-04-04T12:08:56.233Z,21.00
2019-04-04T12:11:25.694Z,22.13
2019-04-04T12:13:55.170Z,21.40
2019-04-04T12:16:24.613Z,20.07
2019-04-04T12:18:54.056Z,18.90
2019-04-04T12:21:23.503Z,22.90
2019-04-04T12:23:53.050Z,20.43
2019-04-04T12:26:22.480Z,18.63
2019-04-04T12:28:51.941Z,19.30
2019-04-04T12:31:21.561Z,17.67
2019-04-04T12:33:51.027Z,20.37
2019-04-04T12:36:24.743Z,21.00
2019-04-04T12:38:51.581Z,18.37
2019-04-04T12:41:21.010Z,21.33
2019-04-04T12:43:50.533Z,20.00
2019-04-04T12:46:19.970Z,19.40
2019-04-04T12:48:49.425Z,22.27
2019-04-04T12:51:18.867Z,20.03
2019-04-04T12:53:48.349Z,19.70
2019-04-04T12:56:17.786Z,22.90
2019-04-04T12:58:47.237Z,19.40
2019-04-04T13:01:16.665Z,17.63
2019-04-04T13:03:46.209Z,19.53
2019-04-04T13:06:15.672Z,20.33
2019-04-04T13:08:45.128Z,17.43
2019-04-04T13:11:14.706Z,16.93
2019-04-04T13:13:44.113Z,18.30
2019-04-04T13:16:13.607Z,15.83
2019-04-04T13:18:43.064Z,19.77
2019-04-04T13:21:12.585Z,15.33
2019-04-04T13:23:42.032Z,16.43
2019-04-04T13:26:11.472Z,15.30
2019-04-04T13:28:40.942Z,17.50
2019-04-04T13:31:10.411Z,16.70
2019-04-04T13:33:39.887Z,20.17
2019-04-04T13:36:09.497Z,17.77
2019-04-04T13:38:39.128Z,17.47
2019-04-04T13:41:21.018Z,24.37
2019-04-04T13:43:39.714Z,17.60
2019-04-04T13:46:10.997Z,14.60
2019-04-04T13:48:43.177Z,18.43
2019-04-04T13:51:11.507Z,17.13
2019-04-04T13:53:41.439Z,15.90
2019-04-04T13:56:11.019Z,17.73
2019-04-04T13:58:40.764Z,16.47
2019-04-04T14:01:10.341Z,20.23
2019-04-04T14:03:39.769Z,9.37
2019-04-04T14:06:09.243Z,19.27
2019-04-04T14:08:39.472Z,14.80
2019-04-04T14:11:09.637Z,13.90
2019-04-04T14:13:39.066Z,14.90
2019-04-04T14:16:08.529Z,17.30
2019-04-04T14:18:39.963Z,16.53
2019-04-04T14:21:09.054Z,21.40
2019-04-04T14:23:38.478Z,14.30
2019-04-04T14:26:08.219Z,15.70
2019-04-04T14:28:37.649Z,13.97
2019-04-04T14:31:07.100Z,13.70
2019-04-04T14:33:36.522Z,11.03
2019-04-04T14:36:06.206Z,10.97
2019-04-04T14:38:37.332Z,12.37
2019-04-04T14:41:11.387Z,10.53
2019-04-04T14:43:37.863Z,8.90
2019-04-04T14:46:07.333Z,11.93
2019-04-04T14:48:36.764Z,12.10
2019-04-04T14:51:06.205Z,9.30
2019-04-04T14:53:35.630Z,6.03
2019-04-04T14:56:05.189Z,8.10
2019-04-04T14:58:34.616Z,8.43
2019-04-04T15:01:04.273Z,10.43
2019-04-04T15:03:33.744Z,10.07
2019-04-04T15:06:03.225Z,7.80
2019-04-04T15:08:32.656Z,9.03
2019-04-04T15:11:02.112Z,9.13
2019-04-04T15:13:31.539Z,8.80
2019-04-04T15:16:14.574Z,10.47
2019-04-04T15:18:44.205Z,12.10
2019-04-04T15:21:13.722Z,7.20
2019-04-04T15:23:43.172Z,8.00
2019-04-04T15:26:12.665Z,12.50
2019-04-04T15:28:42.141Z,8.60
2019-04-04T15:31:11.589Z,8.17
2019-04-04T15:33:41.002Z,8.43
2019-04-04T15:36:10.453Z,7.90
2019-04-04T15:38:39.862Z,7.63
2019-04-04T15:41:09.299Z,8.70
2019-04-04T15:43:38.726Z,5.63
2019-04-04T15:46:08.294Z,13.00
2019-04-04T15:48:37.716Z,10.13
2019-04-04T15:51:07.212Z,9.23
2019-04-04T15:53:36.621Z,8.03
2019-04-04T15:56:06.202Z,8.00
2019-04-04T15:58:35.635Z,8.60
2019-04-04T16:01:05.090Z,7.23
2019-04-04T16:03:34.542Z,7.60
2019-04-04T16:06:04.009Z,6.83
2019-04-04T16:08:33.419Z,7.80
2019-04-04T16:11:02.937Z,6.87
2019-04-04T16:13:32.426Z,9.27
2019-04-04T16:16:01.911Z,8.30
2019-04-04T16:18:31.351Z,8.80
2019-04-04T16:21:00.819Z,7.70
2019-04-04T16:23:42.562Z,8.33
2019-04-04T16:26:12.113Z,8.10
2019-04-04T16:28:41.559Z,11.30
2019-04-04T16:31:10.994Z,6.70
2019-04-04T16:33:40.441Z,8.70
2019-04-04T16:36:09.872Z,6.13
2019-04-04T16:38:39.397Z,7.17
2019-04-04T16:41:08.928Z,6.83
2019-04-04T16:43:38.419Z,6.27
2019-04-04T16:46:07.858Z,8.13
2019-04-04T16:48:37.319Z,6.20
2019-04-04T16:51:06.743Z,4.50
2019-04-04T16:53:36.406Z,11.10
2019-04-04T16:56:06.178Z,3.87
2019-04-04T16:58:36.958Z,4.10
2019-04-04T17:01:06.642Z,5.67
2019-04-04T17:03:36.186Z,3.60
2019-04-04T17:06:05.736Z,4.10
2019-04-04T17:08:35.207Z,4.97
2019-04-04T17:11:04.619Z,4.23
2019-04-04T17:13:34.085Z,3.50
2019-04-04T17:16:03.519Z,4.10
2019-04-04T17:18:33.000Z,4.13
2019-04-04T17:21:02.497Z,3.03
2019-04-04T17:23:31.955Z,2.60
2019-04-04T17:26:01.574Z,2.80
2019-04-04T17:28:31.153Z,2.80
2019-04-04T17:31:01.195Z,5.27
2019-04-04T17:33:30.971Z,3.10
2019-04-04T17:36:00.540Z,4.00
2019-04-04T17:38:30.463Z,3.23
2019-04-04T17:41:00.057Z,6.53
2019-04-04T17:43:29.501Z,3.53
2019-04-04T17:45:58.928Z,3.33
2019-04-04T17:48:31.243Z,4.27
2019-04-04T17:50:59.805Z,4.57
2019-04-04T17:53:29.621Z,6.90
2019-04-04T17:55:59.478Z,4.50
2019-04-04T17:58:29.086Z,3.80
2019-04-04T18:00:58.647Z,4.40
2019-04-04T18:03:28.123Z,4.37
2019-04-04T18:05:57.594Z,4.10
2019-04-04T18:08:27.073Z,4.77
2019-04-04T18:10:56.498Z,5.70
2019-04-04T18:13:25.941Z,4.90
2019-04-04T18:15:55.368Z,4.53
2019-04-04T18:18:25.970Z,4.83
2019-04-04T18:20:55.467Z,5.40
2019-04-04T18:23:24.925Z,5.90
2019-04-04T18:25:54.358Z,5.90
2019-04-04T18:28:24.756Z,6.30
2019-04-04T18:30:54.164Z,6.47
2019-04-04T18:33:24.009Z,5.30
2019-04-04T18:35:53.583Z,4.83
2019-04-04T18:38:23.041Z,5.90
2019-04-04T18:40:52.479Z,5.33
2019-04-04T18:43:21.933Z,4.57
2019-04-04T18:45:51.460Z,5.20
2019-04-04T18:48:20.913Z,4.80
2019-04-04T18:50:50.346Z,4.87
2019-04-04T18:53:19.877Z,5.83
2019-04-04T18:55:49.309Z,5.87
2019-04-04T18:58:18.758Z,4.60
2019-04-04T19:00:48.184Z,3.00
2019-04-04T19:03:17.676Z,5.97
2019-04-04T19:05:47.106Z,5.00
2019-04-04T19:08:16.544Z,5.90
2019-04-04T19:10:45.979Z,4.50
2019-04-04T19:13:15.451Z,4.20
2019-04-04T19:15:44.877Z,4.70
2019-04-04T19:18:14.304Z,5.73
2019-04-04T19:20:43.765Z,3.83
2019-04-04T19:23:13.294Z,6.60
2019-04-04T19:25:42.736Z,4.43
2019-04-04T19:28:12.209Z,3.93
2019-04-04T19:30:41.660Z,3.63
2019-04-04T19:33:11.089Z,4.10
2019-04-04T19:35:40.549Z,4.17
2019-04-04T19:38:09.964Z,3.60
2019-04-04T19:40:39.417Z,3.43
2019-04-04T19:43:17.977Z,3.27
2019-04-04T19:45:39.985Z,3.90
2019-04-04T19:48:09.395Z,3.23
2019-04-04T19:50:39.313Z,3.97
2019-04-04T19:53:08.799Z,3.60
2019-04-04T19:55:38.253Z,4.00
2019-04-04T19:58:07.681Z,4.97
2019-04-04T20:00:37.192Z,5.67
2019-04-04T20:03:06.609Z,3.53
2019-04-04T20:05:36.077Z,4.23
2019-04-04T20:08:05.508Z,4.13
2019-04-04T20:10:34.966Z,3.83
2019-04-04T20:13:04.397Z,3.53
2019-04-04T20:15:33.965Z,4.00
2019-04-04T20:18:03.635Z,6.87
2019-04-04T20:20:33.093Z,4.67
2019-04-04T20:23:02.523Z,4.80
2019-04-04T20:25:31.968Z,4.80
2019-04-04T20:28:01.390Z,5.13
2019-04-04T20:30:38.810Z,5.03
2019-04-04T20:33:08.544Z,4.97
2019-04-04T20:35:37.989Z,5.20
2019-04-04T20:38:07.404Z,5.57
2019-04-04T20:40:37.121Z,6.40
2019-04-04T20:43:06.546Z,6.23
2019-04-04T20:45:35.997Z,5.30
2019-04-04T20:48:05.414Z,5.87
2019-04-04T20:50:35.375Z,7.80
2019-04-04T20:53:04.945Z,7.03
2019-04-04T20:55:34.397Z,6.60
2019-04-04T20:58:03.817Z,6.13
2019-04-04T21:00:33.352Z,6.63
2019-04-04T21:03:02.819Z,6.50
2019-04-04T21:05:32.361Z,6.70
2019-04-04T21:08:01.806Z,8.00
2019-04-04T21:10:31.223Z,6.90
2019-04-04T21:13:09.647Z,7.60
2019-04-04T21:15:39.066Z,6.93
2019-04-04T21:18:08.604Z,7.80
2019-04-04T21:20:38.037Z,7.77
2019-04-04T21:23:07.474Z,7.30
2019-04-04T21:25:38.720Z,8.17
2019-04-04T21:28:08.318Z,7.53
2019-04-04T21:30:37.746Z,8.43
2019-04-04T21:33:07.245Z,7.30
2019-04-04T21:35:36.683Z,7.47
2019-04-04T21:38:06.129Z,8.70
2019-04-04T21:40:35.552Z,7.73
2019-04-04T21:43:04.984Z,8.70
2019-04-04T21:45:34.423Z,8.70
2019-04-04T21:48:03.927Z,9.33
2019-04-04T21:50:33.366Z,8.30
2019-04-04T21:53:03.001Z,8.43
2019-04-04T21:55:32.514Z,7.93
2019-04-04T21:58:01.949Z,7.07
2019-04-04T22:00:41.844Z,10.13
2019-04-04T22:03:11.298Z,7.93
2019-04-04T22:05:40.758Z,7.23
2019-04-04T22:08:10.195Z,9.23
2019-04-04T22:10:39.715Z,8.60
2019-04-04T22:13:09.297Z,8.67
2019-04-04T22:15:38.815Z,8.50
2019-04-04T22:18:08.273Z,8.37
2019-04-04T22:20:37.686Z,9.07
2019-04-04T22:23:07.142Z,9.13
2019-04-04T22:25:36.574Z,9.80
2019-04-04T22:28:06.148Z,9.73
2019-04-04T22:30:35.596Z,10.67
2019-04-04T22:33:05.054Z,9.90
2019-04-04T22:35:34.644Z,9.80
2019-04-04T22:38:04.237Z,9.00
2019-04-04T22:40:33.641Z,10.60
2019-04-04T22:43:03.093Z,10.53
2019-04-04T22:45:32.536Z,9.10
2019-04-04T22:48:03.802Z,9.80
2019-04-04T22:50:33.265Z,10.13
2019-04-04T22:53:02.710Z,9.70
2019-04-04T22:55:32.138Z,10.17
2019-04-04T22:58:01.596Z,9.40
2019-04-04T23:00:31.106Z,11.10
2019-04-04T23:03:03.379Z,10.07
2019-04-04T23:05:32.913Z,10.70
2019-04-04T23:08:02.399Z,9.73
2019-04-04T23:10:31.945Z,14.23
2019-04-04T23:13:01.403Z,9.97
2019-04-04T23:15:30.868Z,9.90
2019-04-04T23:18:00.452Z,10.60
2019-04-04T23:20:29.933Z,10.57
2019-04-04T23:23:01.225Z,9.90
2019-04-04T23:25:30.533Z,9.20
2019-04-04T23:27:59.989Z,11.37
2019-04-04T23:30:29.447Z,10.83
2019-04-04T23:32:59.300Z,9.57
2019-04-04T23:35:28.806Z,10.07
2019-04-04T23:37:58.305Z,10.77
2019-04-04T23:40:27.812Z,11.33
2019-04-04T23:42:57.265Z,9.83
2019-04-04T23:45:26.686Z,10.23
2019-04-04T23:47:56.163Z,10.47
2019-04-04T23:50:25.649Z,9.33
2019-04-04T23:52:55.079Z,9.13
2019-04-04T23:55:24.567Z,10.00
2019-04-04T23:57:54.071Z,9.97
